sensor_id;sensor_type;location;lat;lon;timestamp;P1;durP1;ratioP1;P2;durP2;ratioP2
10045;SDS011;5063;50.878;4.742;2022-08-23T00:01:34;8.83;;;4.40;;
10045;SDS011;5063;50.878;4.742;2022-08-23T00:04:07;5.83;;;4.43;;
10045;SDS011;5063;50.878;4.742;2022-08-23T00:06:35;8.87;;;5.07;;
10045;SDS011;5063;50.878;4.742;2022-08-23T00:09:01;9.30;;;5.13;;
10045;SDS011;5063;50.878;4.742;2022-08-23T00:11:29;9.43;;;5.37;;
10045;SDS011;5063;50.878;4.742;2022-08-23T00:13:55;11.50;;;5.43;;
10045;SDS011;5063;50.878;4.742;2022-08-23T00:16:23;7.83;;;5.63;;
10045;SDS011;5063;50.878;4.742;2022-08-23T00:18:49;13.57;;;5.67;;
10045;SDS011;5063;50.878;4.742;2022-08-23T00:21:15;12.80;;;4.80;;
10045;SDS011;5063;50.878;4.742;2022-08-23T00:23:41;6.23;;;5.10;;
10045;SDS011;5063;50.878;4.742;2022-08-23T00:26:06;12.60;;;5.73;;
10045;SDS011;5063;50.878;4.742;2022-08-23T00:28:32;10.20;;;4.83;;
10045;SDS011;5063;50.878;4.742;2022-08-23T00:30:59;9.37;;;5.30;;
10045;SDS011;5063;50.878;4.742;2022-08-23T00:33:24;9.27;;;5.67;;
10045;SDS011;5063;50.878;4.742;2022-08-23T00:35:50;6.93;;;5.00;;
10045;SDS011;5063;50.878;4.742;2022-08-23T00:38:16;14.27;;;5.73;;
10045;SDS011;5063;50.878;4.742;2022-08-23T00:40:46;8.93;;;5.60;;
10045;SDS011;5063;50.878;4.742;2022-08-23T00:43:19;12.50;;;6.17;;
10045;SDS011;5063;50.878;4.742;2022-08-23T00:49:13;10.73;;;6.43;;
10045;SDS011;5063;50.878;4.742;2022-08-23T00:54:22;10.37;;;6.73;;
10045;SDS011;5063;50.878;4.742;2022-08-23T00:56:51;12.97;;;6.03;;
10045;SDS011;5063;50.878;4.742;2022-08-23T00:59:20;16.30;;;6.70;;
10045;SDS011;5063;50.878;4.742;2022-08-23T01:01:46;10.30;;;6.73;;
10045;SDS011;5063;50.878;4.742;2022-08-23T01:04:13;10.53;;;6.90;;
10045;SDS011;5063;50.878;4.742;2022-08-23T01:06:43;15.33;;;7.33;;
10045;SDS011;5063;50.878;4.742;2022-08-23T01:09:27;11.37;;;6.50;;
10045;SDS011;5063;50.878;4.742;2022-08-23T01:11:56;9.37;;;6.30;;
10045;SDS011;5063;50.878;4.742;2022-08-23T01:16:54;9.60;;;6.80;;
10045;SDS011;5063;50.878;4.742;2022-08-23T01:19:26;10.40;;;5.97;;
10045;SDS011;5063;50.878;4.742;2022-08-23T01:21:58;8.37;;;6.47;;
10045;SDS011;5063;50.878;4.742;2022-08-23T01:24:33;9.13;;;6.40;;
10045;SDS011;5063;50.878;4.742;2022-08-23T01:27:01;10.33;;;6.67;;
10045;SDS011;5063;50.878;4.742;2022-08-23T01:29:28;8.77;;;6.43;;
10045;SDS011;5063;50.878;4.742;2022-08-23T01:31:53;9.17;;;6.20;;
10045;SDS011;5063;50.878;4.742;2022-08-23T01:34:20;12.13;;;6.10;;
10045;SDS011;5063;50.878;4.742;2022-08-23T01:36:50;6.20;;;5.07;;
10045;SDS011;5063;50.878;4.742;2022-08-23T01:39:16;9.40;;;6.57;;
10045;SDS011;5063;50.878;4.742;2022-08-23T01:41:42;10.20;;;6.73;;
10045;SDS011;5063;50.878;4.742;2022-08-23T01:44:08;10.97;;;6.27;;
10045;SDS011;5063;50.878;4.742;2022-08-23T01:46:34;13.50;;;6.93;;
10045;SDS011;5063;50.878;4.742;2022-08-23T01:49:01;9.13;;;6.57;;
10045;SDS011;5063;50.878;4.742;2022-08-23T01:51:28;8.60;;;6.03;;
10045;SDS011;5063;50.878;4.742;2022-08-23T01:53:54;8.47;;;6.40;;
10045;SDS011;5063;50.878;4.742;2022-08-23T01:56:20;9.43;;;5.90;;
10045;SDS011;5063;50.878;4.742;2022-08-23T01:58:47;13.77;;;7.63;;
10045;SDS011;5063;50.878;4.742;2022-08-23T02:01:13;9.67;;;6.30;;
10045;SDS011;5063;50.878;4.742;2022-08-23T02:03:39;10.73;;;7.10;;
10045;SDS011;5063;50.878;4.742;2022-08-23T02:06:05;10.73;;;6.00;;
10045;SDS011;5063;50.878;4.742;2022-08-23T02:08:31;9.23;;;6.37;;
10045;SDS011;5063;50.878;4.742;2022-08-23T02:11:17;8.47;;;6.33;;
10045;SDS011;5063;50.878;4.742;2022-08-23T02:13:46;13.23;;;6.67;;
10045;SDS011;5063;50.878;4.742;2022-08-23T02:16:20;14.13;;;7.17;;
10045;SDS011;5063;50.878;4.742;2022-08-23T02:19:07;12.13;;;6.17;;
10045;SDS011;5063;50.878;4.742;2022-08-23T02:21:34;8.10;;;6.43;;
10045;SDS011;5063;50.878;4.742;2022-08-23T02:24:02;7.80;;;6.23;;
10045;SDS011;5063;50.878;4.742;2022-08-23T02:26:30;9.47;;;5.90;;
10045;SDS011;5063;50.878;4.742;2022-08-23T02:28:56;10.37;;;6.53;;
10045;SDS011;5063;50.878;4.742;2022-08-23T02:31:22;7.90;;;6.80;;
10045;SDS011;5063;50.878;4.742;2022-08-23T02:33:47;14.13;;;7.17;;
10045;SDS011;5063;50.878;4.742;2022-08-23T02:36:14;10.13;;;6.50;;
10045;SDS011;5063;50.878;4.742;2022-08-23T02:38:40;8.63;;;5.80;;
10045;SDS011;5063;50.878;4.742;2022-08-23T02:41:06;8.47;;;6.47;;
10045;SDS011;5063;50.878;4.742;2022-08-23T02:43:31;8.57;;;6.00;;
10045;SDS011;5063;50.878;4.742;2022-08-23T02:45:58;12.37;;;7.00;;
10045;SDS011;5063;50.878;4.742;2022-08-23T02:48:24;9.37;;;5.93;;
10045;SDS011;5063;50.878;4.742;2022-08-23T02:50:50;13.00;;;6.17;;
10045;SDS011;5063;50.878;4.742;2022-08-23T02:53:16;6.90;;;5.60;;
10045;SDS011;5063;50.878;4.742;2022-08-23T02:55:45;10.33;;;6.13;;
10045;SDS011;5063;50.878;4.742;2022-08-23T02:58:12;9.20;;;5.97;;
10045;SDS011;5063;50.878;4.742;2022-08-23T03:00:38;10.27;;;5.80;;
10045;SDS011;5063;50.878;4.742;2022-08-23T03:03:04;11.90;;;6.50;;
10045;SDS011;5063;50.878;4.742;2022-08-23T03:05:30;10.87;;;5.77;;
10045;SDS011;5063;50.878;4.742;2022-08-23T03:07:57;10.67;;;6.07;;
10045;SDS011;5063;50.878;4.742;2022-08-23T03:10:22;7.77;;;5.63;;
10045;SDS011;5063;50.878;4.742;2022-08-23T03:12:49;12.17;;;6.70;;
10045;SDS011;5063;50.878;4.742;2022-08-23T03:15:14;10.33;;;6.30;;
10045;SDS011;5063;50.878;4.742;2022-08-23T03:17:40;14.43;;;6.73;;
10045;SDS011;5063;50.878;4.742;2022-08-23T03:20:06;8.40;;;6.10;;
10045;SDS011;5063;50.878;4.742;2022-08-23T03:22:33;8.17;;;6.30;;
10045;SDS011;5063;50.878;4.742;2022-08-23T03:24:59;10.67;;;6.13;;
10045;SDS011;5063;50.878;4.742;2022-08-23T03:27:25;8.33;;;6.20;;
10045;SDS011;5063;50.878;4.742;2022-08-23T03:29:51;11.00;;;6.03;;
10045;SDS011;5063;50.878;4.742;2022-08-23T03:32:17;10.57;;;7.07;;
10045;SDS011;5063;50.878;4.742;2022-08-23T03:34:43;11.23;;;6.47;;
10045;SDS011;5063;50.878;4.742;2022-08-23T03:37:09;13.90;;;7.50;;
10045;SDS011;5063;50.878;4.742;2022-08-23T03:39:34;8.97;;;7.43;;
10045;SDS011;5063;50.878;4.742;2022-08-23T03:42:01;11.80;;;8.10;;
10045;SDS011;5063;50.878;4.742;2022-08-23T03:44:27;14.93;;;8.47;;
10045;SDS011;5063;50.878;4.742;2022-08-23T03:46:52;13.13;;;8.43;;
10045;SDS011;5063;50.878;4.742;2022-08-23T03:49:18;14.47;;;10.30;;
10045;SDS011;5063;50.878;4.742;2022-08-23T03:51:44;16.00;;;10.40;;
10045;SDS011;5063;50.878;4.742;2022-08-23T03:54:10;16.17;;;9.00;;
10045;SDS011;5063;50.878;4.742;2022-08-23T03:56:37;13.90;;;8.17;;
10045;SDS011;5063;50.878;4.742;2022-08-23T03:59:05;14.50;;;7.80;;
10045;SDS011;5063;50.878;4.742;2022-08-23T04:01:33;10.27;;;7.93;;
10045;SDS011;5063;50.878;4.742;2022-08-23T04:03:59;11.13;;;8.47;;
10045;SDS011;5063;50.878;4.742;2022-08-23T04:06:25;10.53;;;7.80;;
10045;SDS011;5063;50.878;4.742;2022-08-23T04:08:52;16.03;;;9.03;;
10045;SDS011;5063;50.878;4.742;2022-08-23T04:11:19;14.37;;;8.47;;
10045;SDS011;5063;50.878;4.742;2022-08-23T04:13:45;13.50;;;8.13;;
10045;SDS011;5063;50.878;4.742;2022-08-23T04:16:11;13.53;;;8.33;;
10045;SDS011;5063;50.878;4.742;2022-08-23T04:18:37;14.10;;;8.00;;
10045;SDS011;5063;50.878;4.742;2022-08-23T04:21:04;15.10;;;8.70;;
10045;SDS011;5063;50.878;4.742;2022-08-23T04:23:36;11.90;;;8.40;;
10045;SDS011;5063;50.878;4.742;2022-08-23T04:26:03;13.43;;;8.70;;
10045;SDS011;5063;50.878;4.742;2022-08-23T04:28:30;11.40;;;7.60;;
10045;SDS011;5063;50.878;4.742;2022-08-23T04:30:57;10.20;;;7.67;;
10045;SDS011;5063;50.878;4.742;2022-08-23T04:33:25;10.00;;;7.60;;
10045;SDS011;5063;50.878;4.742;2022-08-23T04:35:51;15.80;;;8.83;;
10045;SDS011;5063;50.878;4.742;2022-08-23T04:38:17;9.33;;;7.63;;
10045;SDS011;5063;50.878;4.742;2022-08-23T04:40:43;14.07;;;8.03;;
10045;SDS011;5063;50.878;4.742;2022-08-23T04:43:28;16.67;;;8.03;;
10045;SDS011;5063;50.878;4.742;2022-08-23T04:45:54;16.73;;;9.47;;
10045;SDS011;5063;50.878;4.742;2022-08-23T04:48:20;13.87;;;8.77;;
10045;SDS011;5063;50.878;4.742;2022-08-23T04:50:47;9.93;;;8.17;;
10045;SDS011;5063;50.878;4.742;2022-08-23T04:53:13;12.37;;;8.33;;
10045;SDS011;5063;50.878;4.742;2022-08-23T04:55:39;10.83;;;8.40;;
10045;SDS011;5063;50.878;4.742;2022-08-23T04:58:05;12.83;;;8.47;;
10045;SDS011;5063;50.878;4.742;2022-08-23T05:00:31;12.13;;;9.10;;
10045;SDS011;5063;50.878;4.742;2022-08-23T05:02:57;13.10;;;8.80;;
10045;SDS011;5063;50.878;4.742;2022-08-23T05:05:23;15.63;;;10.20;;
10045;SDS011;5063;50.878;4.742;2022-08-23T05:07:51;16.07;;;9.77;;
10045;SDS011;5063;50.878;4.742;2022-08-23T05:10:18;16.13;;;8.83;;
10045;SDS011;5063;50.878;4.742;2022-08-23T05:12:43;13.67;;;8.90;;
10045;SDS011;5063;50.878;4.742;2022-08-23T05:15:10;13.27;;;8.37;;
10045;SDS011;5063;50.878;4.742;2022-08-23T05:17:36;10.70;;;8.23;;
10045;SDS011;5063;50.878;4.742;2022-08-23T05:20:03;13.53;;;8.57;;
10045;SDS011;5063;50.878;4.742;2022-08-23T05:22:34;15.20;;;8.13;;
10045;SDS011;5063;50.878;4.742;2022-08-23T05:25:01;12.93;;;8.83;;
10045;SDS011;5063;50.878;4.742;2022-08-23T05:27:27;16.30;;;8.70;;
10045;SDS011;5063;50.878;4.742;2022-08-23T05:29:52;10.03;;;7.83;;
10045;SDS011;5063;50.878;4.742;2022-08-23T05:32:19;10.13;;;7.40;;
10045;SDS011;5063;50.878;4.742;2022-08-23T05:34:45;11.90;;;7.70;;
10045;SDS011;5063;50.878;4.742;2022-08-23T05:37:11;21.43;;;8.83;;
10045;SDS011;5063;50.878;4.742;2022-08-23T05:39:37;15.60;;;8.17;;
10045;SDS011;5063;50.878;4.742;2022-08-23T05:42:03;13.70;;;8.37;;
10045;SDS011;5063;50.878;4.742;2022-08-23T05:44:30;14.33;;;8.13;;
10045;SDS011;5063;50.878;4.742;2022-08-23T05:46:56;12.00;;;7.93;;
10045;SDS011;5063;50.878;4.742;2022-08-23T05:49:22;13.10;;;7.93;;
10045;SDS011;5063;50.878;4.742;2022-08-23T05:51:48;12.87;;;7.87;;
10045;SDS011;5063;50.878;4.742;2022-08-23T05:54:14;11.23;;;7.70;;
10045;SDS011;5063;50.878;4.742;2022-08-23T05:56:41;11.77;;;7.90;;
10045;SDS011;5063;50.878;4.742;2022-08-23T05:59:09;14.80;;;8.40;;
10045;SDS011;5063;50.878;4.742;2022-08-23T06:01:36;17.13;;;7.90;;
10045;SDS011;5063;50.878;4.742;2022-08-23T06:04:03;18.13;;;7.73;;
10045;SDS011;5063;50.878;4.742;2022-08-23T06:06:32;10.83;;;7.77;;
10045;SDS011;5063;50.878;4.742;2022-08-23T06:08:59;11.07;;;7.50;;
10045;SDS011;5063;50.878;4.742;2022-08-23T06:11:26;18.83;;;7.90;;
10045;SDS011;5063;50.878;4.742;2022-08-23T06:13:58;18.03;;;8.13;;
10045;SDS011;5063;50.878;4.742;2022-08-23T06:16:26;13.67;;;7.13;;
10045;SDS011;5063;50.878;4.742;2022-08-23T06:18:54;12.33;;;7.20;;
10045;SDS011;5063;50.878;4.742;2022-08-23T06:21:21;16.33;;;7.77;;
10045;SDS011;5063;50.878;4.742;2022-08-23T06:23:49;12.33;;;7.20;;
10045;SDS011;5063;50.878;4.742;2022-08-23T06:26:19;14.17;;;6.80;;
10045;SDS011;5063;50.878;4.742;2022-08-23T06:28:50;13.90;;;6.67;;
10045;SDS011;5063;50.878;4.742;2022-08-23T06:31:18;12.60;;;5.90;;
10045;SDS011;5063;50.878;4.742;2022-08-23T06:34:05;12.57;;;5.18;;
10045;SDS011;5063;50.878;4.742;2022-08-23T06:36:31;11.95;;;5.05;;
10045;SDS011;5063;50.878;4.742;2022-08-23T06:38:57;12.60;;;4.38;;
10045;SDS011;5063;50.878;4.742;2022-08-23T06:41:23;11.70;;;4.75;;
10045;SDS011;5063;50.878;4.742;2022-08-23T06:43:49;9.50;;;4.57;;
10045;SDS011;5063;50.878;4.742;2022-08-23T06:46:17;12.07;;;4.50;;
10045;SDS011;5063;50.878;4.742;2022-08-23T06:48:44;7.85;;;3.97;;
10045;SDS011;5063;50.878;4.742;2022-08-23T06:51:12;11.15;;;4.40;;
10045;SDS011;5063;50.878;4.742;2022-08-23T06:53:40;10.18;;;4.32;;
10045;SDS011;5063;50.878;4.742;2022-08-23T06:56:06;8.35;;;4.50;;
10045;SDS011;5063;50.878;4.742;2022-08-23T06:58:31;7.00;;;4.20;;
10045;SDS011;5063;50.878;4.742;2022-08-23T07:04:03;7.72;;;3.70;;
10045;SDS011;5063;50.878;4.742;2022-08-23T07:06:30;9.10;;;3.63;;
10045;SDS011;5063;50.878;4.742;2022-08-23T07:08:56;9.30;;;3.40;;
10045;SDS011;5063;50.878;4.742;2022-08-23T07:11:23;7.88;;;4.20;;
10045;SDS011;5063;50.878;4.742;2022-08-23T07:13:49;6.82;;;3.30;;
10045;SDS011;5063;50.878;4.742;2022-08-23T07:16:17;10.18;;;3.90;;
10045;SDS011;5063;50.878;4.742;2022-08-23T07:18:44;7.28;;;3.60;;
10045;SDS011;5063;50.878;4.742;2022-08-23T07:21:10;6.13;;;3.45;;
10045;SDS011;5063;50.878;4.742;2022-08-23T07:23:37;7.18;;;2.55;;
10045;SDS011;5063;50.878;4.742;2022-08-23T07:26:06;7.30;;;3.80;;
10045;SDS011;5063;50.878;4.742;2022-08-23T07:28:38;5.45;;;2.70;;
10045;SDS011;5063;50.878;4.742;2022-08-23T07:31:13;5.70;;;3.28;;
10045;SDS011;5063;50.878;4.742;2022-08-23T07:33:42;4.53;;;2.65;;
10045;SDS011;5063;50.878;4.742;2022-08-23T07:36:09;6.53;;;2.25;;
10045;SDS011;5063;50.878;4.742;2022-08-23T07:38:42;4.85;;;2.40;;
10045;SDS011;5063;50.878;4.742;2022-08-23T07:41:09;4.75;;;3.00;;
10045;SDS011;5063;50.878;4.742;2022-08-23T07:43:35;4.45;;;2.40;;
10045;SDS011;5063;50.878;4.742;2022-08-23T07:46:02;6.10;;;3.10;;
10045;SDS011;5063;50.878;4.742;2022-08-23T07:48:28;5.35;;;2.50;;
10045;SDS011;5063;50.878;4.742;2022-08-23T07:50:56;6.97;;;2.60;;
10045;SDS011;5063;50.878;4.742;2022-08-23T07:53:23;7.35;;;3.13;;
10045;SDS011;5063;50.878;4.742;2022-08-23T07:55:50;3.80;;;2.55;;
10045;SDS011;5063;50.878;4.742;2022-08-23T07:58:16;5.60;;;3.03;;
10045;SDS011;5063;50.878;4.742;2022-08-23T08:00:42;6.32;;;2.78;;
10045;SDS011;5063;50.878;4.742;2022-08-23T08:03:09;5.95;;;2.85;;
10045;SDS011;5063;50.878;4.742;2022-08-23T08:05:36;5.60;;;2.47;;
10045;SDS011;5063;50.878;4.742;2022-08-23T08:08:02;4.90;;;2.95;;
10045;SDS011;5063;50.878;4.742;2022-08-23T08:10:29;4.57;;;2.45;;
10045;SDS011;5063;50.878;4.742;2022-08-23T08:12:55;5.90;;;1.95;;
10045;SDS011;5063;50.878;4.742;2022-08-23T08:15:20;4.60;;;2.30;;
10045;SDS011;5063;50.878;4.742;2022-08-23T08:17:50;6.00;;;2.42;;
10045;SDS011;5063;50.878;4.742;2022-08-23T08:20:17;2.80;;;1.80;;
10045;SDS011;5063;50.878;4.742;2022-08-23T08:22:44;3.15;;;1.95;;
10045;SDS011;5063;50.878;4.742;2022-08-23T08:25:10;3.08;;;1.92;;
10045;SDS011;5063;50.878;4.742;2022-08-23T08:27:36;3.30;;;1.70;;
10045;SDS011;5063;50.878;4.742;2022-08-23T08:30:03;3.13;;;1.58;;
10045;SDS011;5063;50.878;4.742;2022-08-23T08:32:30;4.75;;;1.98;;
10045;SDS011;5063;50.878;4.742;2022-08-23T08:34:56;3.22;;;1.88;;
10045;SDS011;5063;50.878;4.742;2022-08-23T08:37:22;4.15;;;1.98;;
10045;SDS011;5063;50.878;4.742;2022-08-23T08:39:48;4.65;;;1.88;;
10045;SDS011;5063;50.878;4.742;2022-08-23T08:42:18;2.97;;;1.70;;
10045;SDS011;5063;50.878;4.742;2022-08-23T08:52:48;2.70;;;1.50;;
10045;SDS011;5063;50.878;4.742;2022-08-23T08:55:24;3.13;;;1.92;;
10045;SDS011;5063;50.878;4.742;2022-08-23T08:58:01;2.50;;;1.58;;
10045;SDS011;5063;50.878;4.742;2022-08-23T09:00:32;4.97;;;2.00;;
10045;SDS011;5063;50.878;4.742;2022-08-23T09:03:03;3.13;;;1.55;;
10045;SDS011;5063;50.878;4.742;2022-08-23T09:05:37;4.70;;;1.70;;
10045;SDS011;5063;50.878;4.742;2022-08-23T09:19:05;4.10;;;1.60;;
10045;SDS011;5063;50.878;4.742;2022-08-23T09:21:36;3.60;;;1.80;;
10045;SDS011;5063;50.878;4.742;2022-08-23T09:24:05;1.58;;;1.48;;
10045;SDS011;5063;50.878;4.742;2022-08-23T09:26:31;5.20;;;1.55;;
10045;SDS011;5063;50.878;4.742;2022-08-23T09:29:43;3.72;;;1.52;;
10045;SDS011;5063;50.878;4.742;2022-08-23T09:31:55;5.57;;;2.10;;
10045;SDS011;5063;50.878;4.742;2022-08-23T09:39:36;4.18;;;1.75;;
10045;SDS011;5063;50.878;4.742;2022-08-23T09:42:10;3.15;;;1.45;;
10045;SDS011;5063;50.878;4.742;2022-08-23T09:44:51;2.17;;;1.70;;
10045;SDS011;5063;50.878;4.742;2022-08-23T09:47:17;4.78;;;1.63;;
10045;SDS011;5063;50.878;4.742;2022-08-23T09:49:44;3.28;;;1.85;;
10045;SDS011;5063;50.878;4.742;2022-08-23T09:52:25;2.85;;;1.67;;
10045;SDS011;5063;50.878;4.742;2022-08-23T09:58:01;2.88;;;1.50;;
10045;SDS011;5063;50.878;4.742;2022-08-23T10:00:33;3.08;;;1.55;;
10045;SDS011;5063;50.878;4.742;2022-08-23T10:05:52;1.35;;;1.17;;
10045;SDS011;5063;50.878;4.742;2022-08-23T10:08:21;3.63;;;2.00;;
10045;SDS011;5063;50.878;4.742;2022-08-23T10:10:58;4.13;;;1.65;;
10045;SDS011;5063;50.878;4.742;2022-08-23T10:13:40;1.77;;;1.30;;
10045;SDS011;5063;50.878;4.742;2022-08-23T10:16:23;2.03;;;1.15;;
10045;SDS011;5063;50.878;4.742;2022-08-23T10:19:28;4.53;;;1.70;;
10045;SDS011;5063;50.878;4.742;2022-08-23T10:22:23;3.03;;;1.60;;
10045;SDS011;5063;50.878;4.742;2022-08-23T10:27:40;6.13;;;1.73;;
10045;SDS011;5063;50.878;4.742;2022-08-23T10:33:25;3.10;;;1.98;;
10045;SDS011;5063;50.878;4.742;2022-08-23T10:36:06;2.63;;;2.15;;
10045;SDS011;5063;50.878;4.742;2022-08-23T10:38:45;3.88;;;1.95;;
10045;SDS011;5063;50.878;4.742;2022-08-23T10:49:40;1.88;;;1.77;;
10045;SDS011;5063;50.878;4.742;2022-08-23T10:52:08;2.53;;;1.83;;
10045;SDS011;5063;50.878;4.742;2022-08-23T10:54:45;3.88;;;1.90;;
10045;SDS011;5063;50.878;4.742;2022-08-23T10:57:26;1.60;;;1.50;;
10045;SDS011;5063;50.878;4.742;2022-08-23T11:00:16;3.10;;;1.25;;
10045;SDS011;5063;50.878;4.742;2022-08-23T11:02:57;1.50;;;1.40;;
10045;SDS011;5063;50.878;4.742;2022-08-23T11:05:44;4.15;;;1.80;;
10045;SDS011;5063;50.878;4.742;2022-08-23T11:09:01;3.35;;;1.70;;
10045;SDS011;5063;50.878;4.742;2022-08-23T11:11:46;1.98;;;1.67;;
10045;SDS011;5063;50.878;4.742;2022-08-23T11:17:40;3.47;;;1.95;;
10045;SDS011;5063;50.878;4.742;2022-08-23T11:20:57;2.15;;;1.58;;
10045;SDS011;5063;50.878;4.742;2022-08-23T11:23:15;1.45;;;1.35;;
10045;SDS011;5063;50.878;4.742;2022-08-23T11:26:00;1.65;;;1.20;;
10045;SDS011;5063;50.878;4.742;2022-08-23T11:33:42;3.05;;;1.38;;
10045;SDS011;5063;50.878;4.742;2022-08-23T11:48:48;1.90;;;1.50;;
10045;SDS011;5063;50.878;4.742;2022-08-23T11:54:13;2.88;;;1.67;;
10045;SDS011;5063;50.878;4.742;2022-08-23T11:59:37;2.50;;;1.60;;
10045;SDS011;5063;50.878;4.742;2022-08-23T12:02:28;2.30;;;1.40;;
10045;SDS011;5063;50.878;4.742;2022-08-23T12:07:43;5.25;;;1.20;;
10045;SDS011;5063;50.878;4.742;2022-08-23T12:10:14;2.25;;;1.10;;
10045;SDS011;5063;50.878;4.742;2022-08-23T12:12:41;1.80;;;0.90;;
10045;SDS011;5063;50.878;4.742;2022-08-23T12:15:08;3.25;;;1.00;;
10045;SDS011;5063;50.878;4.742;2022-08-23T12:20:09;1.00;;;0.80;;
10045;SDS011;5063;50.878;4.742;2022-08-23T12:25:29;1.30;;;1.00;;
10045;SDS011;5063;50.878;4.742;2022-08-23T12:28:09;2.15;;;1.13;;
10045;SDS011;5063;50.878;4.742;2022-08-23T12:34:00;2.47;;;1.40;;
10045;SDS011;5063;50.878;4.742;2022-08-23T12:39:04;1.75;;;1.33;;
10045;SDS011;5063;50.878;4.742;2022-08-23T12:41:55;1.10;;;1.00;;
10045;SDS011;5063;50.878;4.742;2022-08-23T12:44:40;2.85;;;1.38;;
10045;SDS011;5063;50.878;4.742;2022-08-23T12:47:12;2.03;;;1.42;;
10045;SDS011;5063;50.878;4.742;2022-08-23T12:49:53;3.13;;;1.45;;
10045;SDS011;5063;50.878;4.742;2022-08-23T12:52:22;2.38;;;1.02;;
10045;SDS011;5063;50.878;4.742;2022-08-23T12:54:50;1.88;;;1.20;;
10045;SDS011;5063;50.878;4.742;2022-08-23T12:57:23;1.85;;;1.10;;
10045;SDS011;5063;50.878;4.742;2022-08-23T13:00:14;2.38;;;1.08;;
10045;SDS011;5063;50.878;4.742;2022-08-23T13:02:55;2.15;;;1.10;;
10045;SDS011;5063;50.878;4.742;2022-08-23T13:08:03;0.85;;;0.80;;
10045;SDS011;5063;50.878;4.742;2022-08-23T13:10:34;1.20;;;1.10;;
10045;SDS011;5063;50.878;4.742;2022-08-23T13:13:02;1.80;;;0.90;;
10045;SDS011;5063;50.878;4.742;2022-08-23T13:15:45;1.88;;;1.10;;
10045;SDS011;5063;50.878;4.742;2022-08-23T13:18:21;1.02;;;0.95;;
10045;SDS011;5063;50.878;4.742;2022-08-23T13:23:40;0.95;;;0.90;;
10045;SDS011;5063;50.878;4.742;2022-08-23T13:31:25;0.90;;;0.70;;
10045;SDS011;5063;50.878;4.742;2022-08-23T13:34:28;1.55;;;0.73;;
10045;SDS011;5063;50.878;4.742;2022-08-23T13:37:00;1.38;;;0.98;;
10045;SDS011;5063;50.878;4.742;2022-08-23T13:39:29;1.08;;;0.98;;
10045;SDS011;5063;50.878;4.742;2022-08-23T13:41:56;1.80;;;0.90;;
10045;SDS011;5063;50.878;4.742;2022-08-23T13:44:22;0.85;;;0.60;;
10045;SDS011;5063;50.878;4.742;2022-08-23T13:46:50;1.17;;;0.80;;
10045;SDS011;5063;50.878;4.742;2022-08-23T13:49:23;2.47;;;0.70;;
10045;SDS011;5063;50.878;4.742;2022-08-23T13:54:24;0.70;;;0.60;;
10045;SDS011;5063;50.878;4.742;2022-08-23T13:56:52;0.70;;;0.70;;
10045;SDS011;5063;50.878;4.742;2022-08-23T14:01:54;1.08;;;0.80;;
10045;SDS011;5063;50.878;4.742;2022-08-23T14:04:20;0.70;;;0.60;;
10045;SDS011;5063;50.878;4.742;2022-08-23T14:06:46;0.70;;;0.70;;
10045;SDS011;5063;50.878;4.742;2022-08-23T14:09:13;2.60;;;0.75;;
10045;SDS011;5063;50.878;4.742;2022-08-23T14:11:39;1.95;;;0.90;;
10045;SDS011;5063;50.878;4.742;2022-08-23T14:14:06;0.88;;;0.88;;
10045;SDS011;5063;50.878;4.742;2022-08-23T14:16:33;1.65;;;0.80;;
10045;SDS011;5063;50.878;4.742;2022-08-23T14:19:02;1.13;;;0.80;;
10045;SDS011;5063;50.878;4.742;2022-08-23T14:21:33;1.13;;;0.85;;
10045;SDS011;5063;50.878;4.742;2022-08-23T14:23:59;1.60;;;1.00;;
10045;SDS011;5063;50.878;4.742;2022-08-23T14:26:24;2.25;;;0.88;;
10045;SDS011;5063;50.878;4.742;2022-08-23T14:28:50;0.88;;;0.88;;
10045;SDS011;5063;50.878;4.742;2022-08-23T14:31:17;0.52;;;0.52;;
10045;SDS011;5063;50.878;4.742;2022-08-23T14:33:44;0.63;;;0.63;;
10045;SDS011;5063;50.878;4.742;2022-08-23T14:36:11;1.52;;;0.85;;
10045;SDS011;5063;50.878;4.742;2022-08-23T14:38:37;1.55;;;0.85;;
10045;SDS011;5063;50.878;4.742;2022-08-23T14:41:05;0.60;;;0.60;;
10045;SDS011;5063;50.878;4.742;2022-08-23T14:43:34;0.93;;;0.80;;
10045;SDS011;5063;50.878;4.742;2022-08-23T14:46:00;1.90;;;0.85;;
10045;SDS011;5063;50.878;4.742;2022-08-23T14:48:26;0.80;;;0.80;;
10045;SDS011;5063;50.878;4.742;2022-08-23T14:50:52;0.63;;;0.63;;
10045;SDS011;5063;50.878;4.742;2022-08-23T14:53:20;0.70;;;0.70;;
10045;SDS011;5063;50.878;4.742;2022-08-23T14:55:48;0.80;;;0.80;;
10045;SDS011;5063;50.878;4.742;2022-08-23T14:58:17;0.68;;;0.68;;
10045;SDS011;5063;50.878;4.742;2022-08-23T15:00:47;1.25;;;0.70;;
10045;SDS011;5063;50.878;4.742;2022-08-23T15:03:18;0.90;;;0.85;;
10045;SDS011;5063;50.878;4.742;2022-08-23T15:05:48;1.52;;;0.77;;
10045;SDS011;5063;50.878;4.742;2022-08-23T15:08:13;1.75;;;1.10;;
10045;SDS011;5063;50.878;4.742;2022-08-23T15:10:39;1.42;;;1.10;;
10045;SDS011;5063;50.878;4.742;2022-08-23T15:13:05;0.60;;;0.60;;
10045;SDS011;5063;50.878;4.742;2022-08-23T15:15:31;1.80;;;0.90;;
10045;SDS011;5063;50.878;4.742;2022-08-23T15:17:59;1.55;;;0.93;;
10045;SDS011;5063;50.878;4.742;2022-08-23T15:20:31;1.20;;;1.10;;
10045;SDS011;5063;50.878;4.742;2022-08-23T15:22:58;0.95;;;0.95;;
10045;SDS011;5063;50.878;4.742;2022-08-23T15:25:25;1.00;;;0.90;;
10045;SDS011;5063;50.878;4.742;2022-08-23T15:27:54;0.80;;;0.80;;
10045;SDS011;5063;50.878;4.742;2022-08-23T15:30:20;1.38;;;1.05;;
10045;SDS011;5063;50.878;4.742;2022-08-23T15:32:47;2.17;;;0.95;;
10045;SDS011;5063;50.878;4.742;2022-08-23T15:35:13;1.02;;;1.02;;
10045;SDS011;5063;50.878;4.742;2022-08-23T15:37:39;0.77;;;0.77;;
10045;SDS011;5063;50.878;4.742;2022-08-23T15:40:05;1.13;;;0.80;;
10045;SDS011;5063;50.878;4.742;2022-08-23T15:42:32;3.08;;;1.10;;
10045;SDS011;5063;50.878;4.742;2022-08-23T15:44:58;1.65;;;1.00;;
10045;SDS011;5063;50.878;4.742;2022-08-23T15:47:32;1.60;;;1.23;;
10045;SDS011;5063;50.878;4.742;2022-08-23T15:50:04;1.17;;;1.08;;
10045;SDS011;5063;50.878;4.742;2022-08-23T15:52:31;1.23;;;1.00;;
10045;SDS011;5063;50.878;4.742;2022-08-23T15:54:56;1.40;;;1.30;;
10045;SDS011;5063;50.878;4.742;2022-08-23T15:57:23;1.50;;;0.80;;
10045;SDS011;5063;50.878;4.742;2022-08-23T15:59:50;1.92;;;1.02;;
10045;SDS011;5063;50.878;4.742;2022-08-23T16:02:16;1.30;;;1.10;;
10045;SDS011;5063;50.878;4.742;2022-08-23T16:04:42;1.10;;;1.00;;
10045;SDS011;5063;50.878;4.742;2022-08-23T16:07:08;1.75;;;1.00;;
10045;SDS011;5063;50.878;4.742;2022-08-23T16:09:37;1.17;;;1.08;;
10045;SDS011;5063;50.878;4.742;2022-08-23T16:12:05;1.65;;;0.80;;
10045;SDS011;5063;50.878;4.742;2022-08-23T16:14:32;0.80;;;0.70;;
10045;SDS011;5063;50.878;4.742;2022-08-23T16:16:58;1.10;;;1.10;;
10045;SDS011;5063;50.878;4.742;2022-08-23T16:19:25;1.25;;;1.10;;
10045;SDS011;5063;50.878;4.742;2022-08-23T16:21:51;1.13;;;1.02;;
10045;SDS011;5063;50.878;4.742;2022-08-23T16:24:21;0.95;;;0.85;;
10045;SDS011;5063;50.878;4.742;2022-08-23T16:26:52;0.90;;;0.80;;
10045;SDS011;5063;50.878;4.742;2022-08-23T16:29:18;0.98;;;0.98;;
10045;SDS011;5063;50.878;4.742;2022-08-23T16:31:45;1.77;;;1.15;;
10045;SDS011;5063;50.878;4.742;2022-08-23T16:34:12;2.35;;;1.00;;
10045;SDS011;5063;50.878;4.742;2022-08-23T16:36:41;1.83;;;0.90;;
10045;SDS011;5063;50.878;4.742;2022-08-23T16:39:09;0.80;;;0.80;;
10045;SDS011;5063;50.878;4.742;2022-08-23T16:41:36;1.33;;;1.23;;
10045;SDS011;5063;50.878;4.742;2022-08-23T16:44:02;4.18;;;1.00;;
10045;SDS011;5063;50.878;4.742;2022-08-23T16:46:28;2.22;;;0.93;;
10045;SDS011;5063;50.878;4.742;2022-08-23T16:48:53;0.90;;;0.90;;
10045;SDS011;5063;50.878;4.742;2022-08-23T16:51:19;1.80;;;1.02;;
10045;SDS011;5063;50.878;4.742;2022-08-23T16:53:46;1.20;;;1.10;;
10045;SDS011;5063;50.878;4.742;2022-08-23T16:56:13;1.88;;;1.10;;
10045;SDS011;5063;50.878;4.742;2022-08-23T16:58:40;1.38;;;1.00;;
10045;SDS011;5063;50.878;4.742;2022-08-23T17:01:09;1.80;;;1.10;;
10045;SDS011;5063;50.878;4.742;2022-08-23T17:03:39;1.10;;;0.90;;